createdAt,value
2022-12-22T00:00:33.319Z,54.86
2022-12-22T00:01:33.353Z,52.67
2022-12-22T00:02:33.511Z,51.31
2022-12-22T00:03:33.494Z,64.79
2022-12-22T00:04:33.286Z,58.51
2022-12-22T00:05:34.211Z,61.10
2022-12-22T00:06:33.284Z,57.05
2022-12-22T00:07:33.257Z,59.38
2022-12-22T00:08:33.270Z,52.74
2022-12-22T00:09:33.240Z,63.03
2022-12-22T00:10:33.256Z,54.45
2022-12-22T00:11:33.233Z,55.89
2022-12-22T00:12:33.227Z,55.95
2022-12-22T00:13:33.212Z,62.68
2022-12-22T00:14:33.209Z,55.76
2022-12-22T00:15:34.706Z,58.94
2022-12-22T00:17:06.260Z,59.24
2022-12-22T00:17:33.179Z,51.37
2022-12-22T00:18:33.189Z,58.71
2022-12-22T00:19:33.171Z,57.56
2022-12-22T00:20:33.147Z,54.47
2022-12-22T00:21:33.158Z,59.34
2022-12-22T00:22:33.130Z,58.84
2022-12-22T00:23:33.124Z,51.87
2022-12-22T00:24:33.130Z,63.00
2022-12-22T00:25:33.121Z,61.96
2022-12-22T00:28:33.539Z,52.54
2022-12-22T00:29:33.524Z,63.76
2022-12-22T00:30:33.536Z,62.92
2022-12-22T00:31:33.501Z,54.60
2022-12-22T00:32:33.506Z,58.51
2022-12-22T00:33:33.480Z,56.49
2022-12-22T00:34:33.505Z,61.33
2022-12-22T00:35:33.483Z,59.57
2022-12-22T00:36:33.459Z,52.42
2022-12-22T00:37:33.451Z,61.02
2022-12-22T00:38:33.443Z,61.57
2022-12-22T00:39:33.442Z,57.71
2022-12-22T00:40:33.451Z,53.73
2022-12-22T00:41:33.448Z,59.67
2022-12-22T00:42:34.541Z,52.83
2022-12-22T00:43:34.515Z,63.73
2022-12-22T00:44:34.493Z,62.51
2022-12-22T00:45:35.413Z,58.69
2022-12-22T00:46:35.495Z,56.51
2022-12-22T00:47:34.484Z,54.59
2022-12-22T00:48:34.472Z,63.64
2022-12-22T00:49:34.475Z,50.92
2022-12-22T00:50:34.480Z,47.52
2022-12-22T00:51:34.438Z,46.27
2022-12-22T00:52:34.430Z,55.94
2022-12-22T00:53:34.436Z,49.14
2022-12-22T00:54:34.420Z,64.58
2022-12-22T00:55:35.373Z,62.79
2022-12-22T00:56:34.411Z,55.58
2022-12-22T00:57:34.448Z,55.86
2022-12-22T00:58:34.451Z,47.59
2022-12-22T00:59:34.373Z,48.18
2022-12-22T01:00:34.373Z,51.47
2022-12-22T01:01:34.445Z,52.71
2022-12-22T01:02:34.558Z,55.67
2022-12-22T01:03:34.552Z,56.62
2022-12-22T01:04:34.347Z,59.15
2022-12-22T01:05:34.336Z,53.12
2022-12-22T01:06:34.333Z,48.37
2022-12-22T01:07:34.324Z,56.10
2022-12-22T01:08:34.308Z,61.71
2022-12-22T01:09:34.323Z,60.67
2022-12-22T01:10:34.283Z,59.76
2022-12-22T01:11:35.284Z,55.06
2022-12-22T01:12:34.317Z,64.95
2022-12-22T01:13:34.269Z,60.33
2022-12-22T01:14:34.253Z,64.36
2022-12-22T01:15:34.374Z,57.76
2022-12-22T01:16:34.266Z,52.76
2022-12-22T01:17:34.241Z,58.47
2022-12-22T01:18:35.228Z,54.44
2022-12-22T01:19:34.210Z,54.09
2022-12-22T01:20:34.215Z,60.26
2022-12-22T01:21:34.202Z,62.93
2022-12-22T01:22:34.205Z,53.05
2022-12-22T01:23:34.181Z,66.48
2022-12-22T01:24:34.178Z,54.11
2022-12-22T01:25:34.175Z,51.72
2022-12-22T01:26:34.175Z,60.42
2022-12-22T01:27:34.156Z,58.07
2022-12-22T01:28:34.201Z,54.73
2022-12-22T01:29:34.132Z,48.24
2022-12-22T01:30:34.182Z,54.35
2022-12-22T01:31:34.123Z,56.29
2022-12-22T01:32:34.163Z,62.27
2022-12-22T01:33:34.124Z,54.56
2022-12-22T01:34:34.090Z,61.56
2022-12-22T01:35:34.102Z,57.18
2022-12-22T01:36:34.119Z,45.53
2022-12-22T01:37:34.111Z,49.44
2022-12-22T01:38:34.067Z,57.00
2022-12-22T01:39:34.061Z,61.48
2022-12-22T01:40:34.050Z,59.25
2022-12-22T01:41:34.050Z,46.08
2022-12-22T01:42:34.078Z,53.31
2022-12-22T01:43:34.040Z,55.04
2022-12-22T01:44:34.025Z,53.03
2022-12-22T01:45:34.016Z,47.76
2022-12-22T01:46:35.061Z,56.02
2022-12-22T01:47:33.984Z,49.51
2022-12-22T01:48:33.990Z,54.93
2022-12-22T01:49:34.007Z,57.51
2022-12-22T01:50:33.971Z,50.29
2022-12-22T01:51:34.023Z,58.67
2022-12-22T01:52:33.956Z,63.43
2022-12-22T01:53:33.946Z,54.26
2022-12-22T01:54:33.938Z,54.15
2022-12-22T01:55:33.934Z,53.58
2022-12-22T01:56:33.925Z,57.55
2022-12-22T01:57:33.915Z,62.47
2022-12-22T01:58:33.925Z,54.51
2022-12-22T01:59:33.987Z,59.11
2022-12-22T02:00:33.908Z,60.80
2022-12-22T02:01:34.055Z,54.27
2022-12-22T02:02:34.015Z,48.69
2022-12-22T02:03:33.966Z,60.31
2022-12-22T02:04:33.869Z,51.17
2022-12-22T02:05:33.867Z,55.36
2022-12-22T02:06:33.844Z,49.09
2022-12-22T02:07:33.833Z,50.31
2022-12-22T02:08:34.847Z,47.38
2022-12-22T02:09:33.897Z,55.40
2022-12-22T02:10:33.955Z,45.94
2022-12-22T02:11:33.840Z,53.48
2022-12-22T02:12:33.842Z,58.57
2022-12-22T02:13:33.832Z,47.79
2022-12-22T02:14:34.401Z,44.29
2022-12-22T02:15:34.522Z,55.63
2022-12-22T02:16:33.925Z,56.83
2022-12-22T02:17:33.835Z,47.39
2022-12-22T02:18:33.755Z,58.18
2022-12-22T02:19:33.743Z,42.88
2022-12-22T02:20:33.748Z,43.66
2022-12-22T02:21:35.348Z,52.12
2022-12-22T02:22:34.410Z,56.57
2022-12-22T02:23:33.727Z,43.72
2022-12-22T02:24:33.852Z,57.14
2022-12-22T02:25:33.732Z,58.51
2022-12-22T02:26:33.752Z,56.33
2022-12-22T02:27:33.688Z,55.03
2022-12-22T02:28:34.407Z,57.01
2022-12-22T02:29:33.667Z,50.98
2022-12-22T02:30:34.567Z,45.68
2022-12-22T02:31:33.738Z,53.49
2022-12-22T02:32:33.677Z,50.13
2022-12-22T02:33:33.689Z,57.72
2022-12-22T02:34:35.518Z,63.34
2022-12-22T02:35:33.687Z,56.07
2022-12-22T02:36:33.696Z,57.99
2022-12-22T02:37:33.609Z,60.04
2022-12-22T02:38:35.133Z,55.10
2022-12-22T02:39:33.591Z,51.35
2022-12-22T02:40:40.867Z,51.73
2022-12-22T02:41:35.577Z,56.59
2022-12-22T02:42:33.558Z,47.14
2022-12-22T02:43:33.549Z,46.86
2022-12-22T02:44:36.703Z,48.84
2022-12-22T02:45:33.623Z,55.43
2022-12-22T02:46:33.608Z,53.62
2022-12-22T02:47:33.515Z,47.76
2022-12-22T02:48:33.615Z,59.51
2022-12-22T02:49:33.534Z,51.96
2022-12-22T02:50:33.521Z,52.14
2022-12-22T02:51:33.493Z,58.85
2022-12-22T02:52:33.478Z,58.69
2022-12-22T02:53:35.990Z,53.50
2022-12-22T02:54:33.482Z,56.05
2022-12-22T02:55:33.645Z,45.99
2022-12-22T02:56:34.370Z,48.80
2022-12-22T02:57:33.475Z,63.21
2022-12-22T03:00:40.664Z,60.96
2022-12-22T03:01:40.899Z,62.41
2022-12-22T03:02:40.846Z,57.27
2022-12-22T03:03:42.015Z,60.96
2022-12-22T03:04:41.724Z,58.14
2022-12-22T03:05:41.724Z,57.97
2022-12-22T03:06:41.714Z,54.12
2022-12-22T03:07:41.746Z,58.64
2022-12-22T03:08:41.708Z,56.36
2022-12-22T03:09:41.706Z,66.05
2022-12-22T03:10:44.246Z,65.22
2022-12-22T03:11:41.688Z,57.82
2022-12-22T03:12:41.682Z,58.28
2022-12-22T03:13:41.677Z,58.64
2022-12-22T03:14:41.657Z,53.64
2022-12-22T03:15:41.678Z,61.51
2022-12-22T03:16:41.716Z,54.08
2022-12-22T03:17:41.623Z,64.02
2022-12-22T03:18:41.612Z,65.81
2022-12-22T03:19:41.623Z,51.48
2022-12-22T03:20:41.623Z,53.56
2022-12-22T03:21:41.617Z,52.82
2022-12-22T03:22:41.576Z,54.42
2022-12-22T03:23:41.566Z,56.13
2022-12-22T03:24:41.575Z,62.80
2022-12-22T03:25:42.607Z,56.81
2022-12-22T03:26:41.558Z,55.40
2022-12-22T03:27:42.544Z,59.03
2022-12-22T03:28:41.544Z,56.83
2022-12-22T03:29:41.532Z,55.98
2022-12-22T03:30:41.526Z,56.40
2022-12-22T03:31:41.626Z,58.37
2022-12-22T03:32:42.164Z,48.11
2022-12-22T03:33:41.516Z,55.25
2022-12-22T03:34:41.503Z,56.12
2022-12-22T03:35:41.482Z,47.41
2022-12-22T03:36:41.480Z,56.98
2022-12-22T03:37:41.465Z,57.53
2022-12-22T03:38:42.247Z,57.26
2022-12-22T03:39:41.464Z,58.71
2022-12-22T03:40:44.433Z,61.27
2022-12-22T03:41:41.472Z,58.93
2022-12-22T03:42:41.455Z,59.36
2022-12-22T03:43:41.458Z,62.33
2022-12-22T03:44:41.421Z,53.41
2022-12-22T03:45:41.426Z,57.88
2022-12-22T03:46:41.461Z,64.27
2022-12-22T03:47:41.387Z,66.71
2022-12-22T03:48:41.387Z,64.35
2022-12-22T03:49:42.285Z,65.25
2022-12-22T03:50:41.387Z,61.72
2022-12-22T03:51:41.374Z,61.72
2022-12-22T03:52:41.346Z,60.53
2022-12-22T03:53:41.369Z,58.97
2022-12-22T03:54:41.367Z,63.38
2022-12-22T03:55:41.332Z,60.29
2022-12-22T03:58:48.648Z,58.03
2022-12-22T03:59:48.632Z,59.59
2022-12-22T04:00:48.648Z,65.68
2022-12-22T04:01:48.792Z,53.74
2022-12-22T04:02:48.780Z,51.97
2022-12-22T04:03:48.593Z,57.52
2022-12-22T04:04:48.588Z,62.55
2022-12-22T04:05:48.594Z,58.97
2022-12-22T04:06:48.593Z,54.15
2022-12-22T04:07:48.568Z,57.80
2022-12-22T04:08:48.566Z,50.73
2022-12-22T04:09:48.555Z,60.89
2022-12-22T04:10:48.573Z,61.94
2022-12-22T04:11:48.649Z,62.46
2022-12-22T04:12:48.529Z,63.80
2022-12-22T04:13:48.530Z,65.61
2022-12-22T04:14:48.517Z,58.79
2022-12-22T04:15:48.517Z,60.33
2022-12-22T04:16:48.545Z,65.79
2022-12-22T04:17:48.498Z,63.90
2022-12-22T04:18:48.480Z,58.16
2022-12-22T04:19:48.469Z,63.92
2022-12-22T04:20:48.495Z,65.72
2022-12-22T04:21:48.456Z,67.63
2022-12-22T04:22:48.453Z,63.01
2022-12-22T04:23:49.522Z,61.05
2022-12-22T04:24:49.531Z,62.26
2022-12-22T04:25:50.474Z,64.12
2022-12-22T04:26:49.581Z,60.83
2022-12-22T04:27:49.499Z,65.75
2022-12-22T04:28:49.589Z,62.43
2022-12-22T04:29:49.483Z,61.01
2022-12-22T04:30:50.496Z,61.71
2022-12-22T04:31:49.569Z,68.03
2022-12-22T04:32:49.465Z,64.26
2022-12-22T04:36:08.315Z,65.57
2022-12-22T04:37:16.726Z,63.52
2022-12-22T04:38:10.403Z,65.61
2022-12-22T04:39:09.382Z,67.63
2022-12-22T04:40:09.406Z,64.43
2022-12-22T04:41:09.373Z,62.19
2022-12-22T04:42:09.358Z,64.95
2022-12-22T04:43:10.284Z,63.13
2022-12-22T04:44:09.342Z,68.55
2022-12-22T04:45:09.338Z,65.17
2022-12-22T04:46:09.392Z,65.81
2022-12-22T04:47:09.324Z,62.69
2022-12-22T04:48:10.272Z,65.79
2022-12-22T04:49:09.316Z,66.39
2022-12-22T04:50:09.321Z,68.46
2022-12-22T04:51:09.295Z,61.18
2022-12-22T04:52:09.279Z,62.65
2022-12-22T04:53:09.296Z,67.13
2022-12-22T04:54:09.273Z,66.40
2022-12-22T04:55:09.291Z,67.24
2022-12-22T04:56:09.252Z,63.38
2022-12-22T04:57:09.242Z,67.64
2022-12-22T04:58:09.249Z,67.59
2022-12-22T04:59:09.227Z,65.50
2022-12-22T05:00:09.233Z,65.78
2022-12-22T05:01:09.265Z,62.30
2022-12-22T05:02:09.364Z,66.29
2022-12-22T05:03:09.293Z,66.14
2022-12-22T05:04:09.199Z,70.56
2022-12-22T05:05:09.190Z,70.24
2022-12-22T05:06:09.188Z,66.87
2022-12-22T05:07:09.210Z,65.23
2022-12-22T05:08:09.173Z,65.65
2022-12-22T05:09:09.153Z,66.48
2022-12-22T05:10:09.149Z,63.16
2022-12-22T05:11:09.159Z,66.44
2022-12-22T05:12:09.115Z,63.43
2022-12-22T05:13:09.131Z,60.92
2022-12-22T05:14:09.108Z,63.62
2022-12-22T05:15:09.098Z,66.63
2022-12-22T05:16:09.094Z,61.54
2022-12-22T05:17:09.743Z,65.63
2022-12-22T05:18:09.085Z,65.18
2022-12-22T05:19:09.060Z,69.05
2022-12-22T05:20:10.058Z,68.37
2022-12-22T05:21:09.051Z,62.88
2022-12-22T05:22:09.036Z,67.19
2022-12-22T05:23:09.042Z,67.15
2022-12-22T05:24:09.024Z,65.56
2022-12-22T05:25:09.017Z,65.52
2022-12-22T05:26:09.023Z,65.62
2022-12-22T05:27:09.004Z,67.51
2022-12-22T05:28:08.998Z,67.44
2022-12-22T05:29:09.008Z,70.05
2022-12-22T05:30:08.981Z,67.50
2022-12-22T05:31:09.020Z,68.82
2022-12-22T05:32:08.968Z,68.12
2022-12-22T05:33:08.979Z,69.59
2022-12-22T05:34:08.965Z,67.62
2022-12-22T05:35:08.941Z,70.72
2022-12-22T05:36:08.936Z,70.33
2022-12-22T05:37:08.937Z,68.36
2022-12-22T05:38:08.914Z,67.82
2022-12-22T05:39:08.918Z,67.29
2022-12-22T05:40:08.903Z,64.54
2022-12-22T05:41:10.707Z,70.33
2022-12-22T05:42:08.895Z,69.66
2022-12-22T05:43:08.871Z,68.24
2022-12-22T05:44:08.874Z,66.69
2022-12-22T05:45:09.820Z,68.14
2022-12-22T05:46:08.951Z,64.03
2022-12-22T05:47:08.853Z,67.05
2022-12-22T05:48:08.847Z,67.70
2022-12-22T05:49:08.851Z,68.39
2022-12-22T05:50:08.817Z,70.51
2022-12-22T05:51:08.952Z,66.71
2022-12-22T05:52:08.799Z,69.14
2022-12-22T05:53:08.793Z,68.95
2022-12-22T05:54:09.700Z,69.09
2022-12-22T05:55:08.782Z,66.39
2022-12-22T05:56:08.814Z,68.06
2022-12-22T05:57:08.763Z,66.98
2022-12-22T05:58:08.771Z,65.74
2022-12-22T05:59:08.743Z,69.46
2022-12-22T06:00:08.745Z,65.24
2022-12-22T06:01:08.759Z,69.14
2022-12-22T06:02:08.922Z,67.78
2022-12-22T06:03:08.874Z,68.12
2022-12-22T06:04:08.817Z,68.42
2022-12-22T06:05:08.700Z,69.32
2022-12-22T06:06:08.711Z,68.53
2022-12-22T06:07:08.685Z,67.65
2022-12-22T06:08:08.684Z,72.76
2022-12-22T06:09:08.677Z,69.81
2022-12-22T06:10:12.349Z,69.00
2022-12-22T06:11:09.657Z,67.15
2022-12-22T06:12:08.647Z,66.62
2022-12-22T06:13:08.646Z,69.05
2022-12-22T06:14:08.628Z,69.41
2022-12-22T06:15:08.619Z,66.92
2022-12-22T06:16:08.660Z,66.94
2022-12-22T06:17:08.611Z,67.79
2022-12-22T06:18:08.602Z,67.76
2022-12-22T06:19:08.589Z,67.41
2022-12-22T06:20:08.575Z,68.79
2022-12-22T06:21:08.574Z,69.92
2022-12-22T06:22:08.567Z,69.04
2022-12-22T06:23:09.567Z,70.96
2022-12-22T06:24:08.557Z,69.19
2022-12-22T06:25:12.067Z,65.48
2022-12-22T06:26:09.551Z,69.30
2022-12-22T06:27:08.529Z,69.16
2022-12-22T06:28:08.516Z,69.08
2022-12-22T06:29:08.544Z,69.19
2022-12-22T06:30:08.501Z,69.29
2022-12-22T06:31:08.563Z,68.12
2022-12-22T06:32:08.494Z,66.39
2022-12-22T06:33:08.474Z,70.54
2022-12-22T06:34:08.467Z,63.96
2022-12-22T06:35:08.479Z,68.21
2022-12-22T06:36:08.461Z,67.15
2022-12-22T06:37:08.452Z,68.67
2022-12-22T06:38:08.450Z,69.88
2022-12-22T06:39:08.438Z,68.77
2022-12-22T06:40:08.470Z,69.48
2022-12-22T06:41:08.435Z,70.27
2022-12-22T06:42:08.413Z,70.78
2022-12-22T06:43:09.603Z,65.89
2022-12-22T06:44:09.390Z,68.73
2022-12-22T06:45:08.412Z,67.87
2022-12-22T06:46:08.446Z,65.71
2022-12-22T06:47:08.382Z,68.31
2022-12-22T06:48:08.363Z,68.48
2022-12-22T06:49:08.359Z,68.09
2022-12-22T06:50:08.348Z,68.92
2022-12-22T06:51:08.445Z,66.75
2022-12-22T06:52:08.338Z,66.82
2022-12-22T06:53:08.357Z,69.78
2022-12-22T06:54:08.314Z,69.40
2022-12-22T06:55:09.229Z,69.86
2022-12-22T06:56:08.313Z,65.78
2022-12-22T06:57:08.280Z,66.44
2022-12-22T06:58:09.296Z,68.35
2022-12-22T06:59:08.278Z,69.80
2022-12-22T07:00:08.298Z,68.58
2022-12-22T07:01:08.277Z,67.95
2022-12-22T07:02:08.402Z,69.06
2022-12-22T07:03:08.558Z,68.86
2022-12-22T07:04:40.763Z,67.94
2022-12-22T07:05:08.247Z,65.87
2022-12-22T07:06:41.771Z,67.89
2022-12-22T07:07:08.773Z,66.97
2022-12-22T07:08:09.389Z,68.23
2022-12-22T07:09:09.210Z,67.62
2022-12-22T07:10:08.201Z,65.85
2022-12-22T07:11:08.192Z,68.25
2022-12-22T07:12:08.181Z,67.88
2022-12-22T07:13:08.180Z,67.05
2022-12-22T07:14:08.168Z,68.96
2022-12-22T07:15:08.176Z,68.54
2022-12-22T07:16:08.905Z,69.33
2022-12-22T07:17:09.846Z,71.25
2022-12-22T07:18:08.137Z,70.68
2022-12-22T07:19:08.124Z,71.76
2022-12-22T07:20:08.119Z,71.65
2022-12-22T07:21:08.131Z,71.64
2022-12-22T07:22:08.103Z,73.55
2022-12-22T07:23:08.094Z,67.99
2022-12-22T07:24:08.088Z,69.27
2022-12-22T07:25:08.068Z,72.79
2022-12-22T07:26:08.765Z,70.03
2022-12-22T07:27:08.055Z,67.89
2022-12-22T07:28:08.055Z,70.15
2022-12-22T07:29:08.037Z,71.46
2022-12-22T07:30:08.047Z,69.97
2022-12-22T07:31:08.083Z,70.22
2022-12-22T07:32:08.022Z,70.98
2022-12-22T07:33:08.015Z,71.90
2022-12-22T07:34:08.001Z,71.96
2022-12-22T07:35:08.005Z,72.80
2022-12-22T07:36:07.987Z,71.01
2022-12-22T07:37:07.973Z,71.04
2022-12-22T07:38:07.978Z,71.88
2022-12-22T07:39:07.962Z,69.24
2022-12-22T07:40:07.971Z,72.25
2022-12-22T07:41:07.947Z,72.00
2022-12-22T07:42:07.953Z,70.15
2022-12-22T07:43:07.921Z,71.61
2022-12-22T07:44:07.921Z,73.49
2022-12-22T07:45:07.915Z,71.66
2022-12-22T07:46:07.939Z,71.24
2022-12-22T07:47:08.847Z,71.44
2022-12-22T07:48:07.892Z,71.94
2022-12-22T07:49:07.888Z,69.91
2022-12-22T07:50:07.906Z,69.66
2022-12-22T07:51:07.862Z,71.41
2022-12-22T07:52:07.868Z,72.16
2022-12-22T07:53:07.902Z,72.02
2022-12-22T07:54:07.880Z,72.24
2022-12-22T07:55:07.877Z,72.81
2022-12-22T07:56:08.353Z,74.15
2022-12-22T07:57:07.825Z,72.17
2022-12-22T07:58:07.818Z,69.87
2022-12-22T07:59:07.797Z,72.41
2022-12-22T08:00:07.798Z,70.00
2022-12-22T08:01:07.784Z,69.43
2022-12-22T08:02:07.855Z,71.40
2022-12-22T08:03:08.002Z,73.80
2022-12-22T08:04:07.759Z,75.11
2022-12-22T08:05:07.804Z,72.84
2022-12-22T08:06:07.758Z,70.44
2022-12-22T08:07:08.291Z,71.80
2022-12-22T08:08:07.738Z,72.91
2022-12-22T08:09:07.794Z,69.42
2022-12-22T08:10:07.715Z,69.42
2022-12-22T08:11:08.284Z,69.23
2022-12-22T08:12:08.713Z,71.28
2022-12-22T08:13:07.744Z,69.99
2022-12-22T08:14:07.676Z,70.36
2022-12-22T08:15:07.676Z,68.91
2022-12-22T08:16:07.691Z,66.13
2022-12-22T08:17:07.653Z,70.61
2022-12-22T08:18:07.663Z,70.08
2022-12-22T08:19:07.641Z,70.17
2022-12-22T08:20:07.658Z,69.14
2022-12-22T08:21:07.638Z,71.71
2022-12-22T08:22:07.625Z,72.13
2022-12-22T08:23:07.651Z,70.77
2022-12-22T08:24:08.371Z,71.01
2022-12-22T08:25:07.594Z,70.36
2022-12-22T08:26:07.590Z,70.36
2022-12-22T08:27:07.595Z,71.49
2022-12-22T08:28:07.561Z,69.93
2022-12-22T08:29:07.586Z,71.34
2022-12-22T08:30:07.553Z,71.35
2022-12-22T08:31:07.625Z,71.99
2022-12-22T08:32:07.677Z,71.38
2022-12-22T08:33:07.531Z,70.16
2022-12-22T08:34:08.282Z,71.55
2022-12-22T08:35:07.518Z,73.22
2022-12-22T08:36:08.420Z,73.77
2022-12-22T08:37:08.504Z,72.36
2022-12-22T08:38:07.494Z,69.65
2022-12-22T08:39:07.495Z,71.00
2022-12-22T08:40:07.491Z,70.46
2022-12-22T08:41:07.463Z,71.29
2022-12-22T08:42:07.466Z,68.79
2022-12-22T08:43:07.467Z,71.26
2022-12-22T08:44:07.444Z,70.38
2022-12-22T08:45:08.349Z,68.09
2022-12-22T08:46:07.453Z,73.13
2022-12-22T08:47:14.894Z,70.98
2022-12-22T08:48:09.413Z,70.58
2022-12-22T08:49:07.415Z,68.87
2022-12-22T08:50:07.418Z,69.59
2022-12-22T08:51:07.413Z,70.43
2022-12-22T08:52:12.828Z,72.55
2022-12-22T08:53:18.769Z,70.92
2022-12-22T08:54:08.428Z,71.60
2022-12-22T08:55:07.353Z,71.65
2022-12-22T08:56:07.342Z,69.55
2022-12-22T08:57:07.355Z,70.31
2022-12-22T08:58:07.457Z,69.06
2022-12-22T08:59:07.320Z,69.40
2022-12-22T09:00:07.308Z,69.50
2022-12-22T09:01:08.901Z,70.77
2022-12-22T09:02:08.026Z,69.30
2022-12-22T09:03:07.413Z,69.52
2022-12-22T09:04:07.318Z,72.94
2022-12-22T09:05:07.305Z,71.18
2022-12-22T09:06:07.886Z,70.90
2022-12-22T09:07:07.265Z,69.83
2022-12-22T09:08:08.241Z,70.40
2022-12-22T09:09:07.240Z,71.75
2022-12-22T09:10:07.245Z,71.50
2022-12-22T09:13:14.092Z,72.36
2022-12-22T09:14:14.093Z,70.32
2022-12-22T09:15:14.158Z,70.91
2022-12-22T09:16:14.960Z,71.23
2022-12-22T09:17:14.080Z,69.28
2022-12-22T09:18:14.051Z,68.99
2022-12-22T09:19:14.131Z,70.73
2022-12-22T09:20:16.073Z,72.01
2022-12-22T09:21:14.894Z,70.73
2022-12-22T09:22:15.122Z,71.94
2022-12-22T09:23:22.966Z,71.08
2022-12-22T09:24:15.259Z,69.34
2022-12-22T09:25:16.031Z,69.96
2022-12-22T09:26:16.072Z,70.34
2022-12-22T09:27:47.499Z,70.91
2022-12-22T09:28:15.059Z,70.34
2022-12-22T09:29:15.029Z,71.52
2022-12-22T09:30:15.099Z,71.70
2022-12-22T09:31:15.022Z,69.34
2022-12-22T09:32:15.036Z,71.38
2022-12-22T09:33:15.004Z,69.92
2022-12-22T09:34:17.931Z,71.27
2022-12-22T09:35:16.549Z,71.67
2022-12-22T09:36:14.973Z,73.87
2022-12-22T09:37:14.955Z,69.75
2022-12-22T09:38:14.983Z,72.65
2022-12-22T09:39:14.961Z,71.07
2022-12-22T09:40:14.950Z,69.41
2022-12-22T09:41:14.935Z,71.84
2022-12-22T09:42:15.493Z,70.81
2022-12-22T09:43:14.934Z,71.39
2022-12-22T09:44:14.913Z,72.28
2022-12-22T09:45:17.224Z,70.61
2022-12-22T09:46:15.927Z,68.00
2022-12-22T09:47:15.473Z,71.63
2022-12-22T09:48:15.547Z,69.72
2022-12-22T09:49:15.517Z,70.74
2022-12-22T09:50:14.881Z,71.00
2022-12-22T09:51:14.849Z,70.39
2022-12-22T09:52:14.849Z,72.65
2022-12-22T09:53:14.838Z,68.67
2022-12-22T09:54:14.834Z,70.22
2022-12-22T09:55:14.835Z,72.42
2022-12-22T09:56:14.819Z,72.20
2022-12-22T09:57:14.816Z,71.90
2022-12-22T09:58:14.801Z,69.59
2022-12-22T09:59:14.791Z,71.26
2022-12-22T10:00:14.790Z,70.73
2022-12-22T10:01:14.844Z,70.11
2022-12-22T10:02:14.829Z,69.55
2022-12-22T10:03:15.523Z,71.39
2022-12-22T10:04:14.749Z,70.37
2022-12-22T10:05:14.735Z,72.65
2022-12-22T10:06:14.738Z,76.23
2022-12-22T10:07:14.722Z,69.67
2022-12-22T10:08:14.730Z,71.53
2022-12-22T10:09:44.055Z,69.51
2022-12-22T10:10:16.695Z,70.33
2022-12-22T10:11:15.508Z,71.73
2022-12-22T10:12:14.696Z,70.70
2022-12-22T10:13:14.672Z,69.48
2022-12-22T10:14:14.680Z,69.53
2022-12-22T10:15:21.509Z,69.69
2022-12-22T10:16:16.688Z,68.97
2022-12-22T10:17:14.643Z,68.81
2022-12-22T10:18:14.639Z,70.28
2022-12-22T10:19:14.659Z,70.24
2022-12-22T10:20:14.644Z,68.80
2022-12-22T10:21:14.604Z,70.56
2022-12-22T10:22:15.600Z,71.90
2022-12-22T10:23:14.783Z,71.70
2022-12-22T10:24:14.586Z,70.99
2022-12-22T10:25:14.576Z,72.69
2022-12-22T10:26:28.135Z,71.26
2022-12-22T10:27:16.572Z,70.64
2022-12-22T10:28:14.563Z,70.31
2022-12-22T10:29:15.551Z,72.37
2022-12-22T10:30:14.541Z,70.04
2022-12-22T10:31:14.549Z,70.13
2022-12-22T10:32:14.707Z,69.14
2022-12-22T10:33:14.522Z,70.13
2022-12-22T10:34:14.506Z,71.03
2022-12-22T10:35:14.514Z,71.03
2022-12-22T10:36:14.762Z,71.22
2022-12-22T10:37:14.487Z,72.34
2022-12-22T10:38:21.328Z,71.14
2022-12-22T10:39:15.478Z,69.02
2022-12-22T10:40:14.495Z,70.55
2022-12-22T10:41:14.989Z,70.90
2022-12-22T10:42:14.545Z,69.26
2022-12-22T10:43:14.475Z,69.43
2022-12-22T10:44:14.450Z,70.52
2022-12-22T10:45:14.442Z,69.37
2022-12-22T10:46:15.113Z,68.00
2022-12-22T10:47:17.628Z,67.93
2022-12-22T10:48:15.411Z,69.04
2022-12-22T10:49:14.428Z,68.31
2022-12-22T10:50:14.454Z,70.41
2022-12-22T10:51:14.456Z,68.94
2022-12-22T10:52:14.403Z,70.46
2022-12-22T10:53:14.404Z,70.26
2022-12-22T10:54:14.428Z,69.65
2022-12-22T10:55:14.394Z,68.91
2022-12-22T10:56:15.058Z,71.12
2022-12-22T10:57:17.092Z,69.00
2022-12-22T10:58:14.330Z,68.20
2022-12-22T10:59:14.335Z,68.86
2022-12-22T11:00:14.308Z,71.22
2022-12-22T11:01:14.374Z,69.97
2022-12-22T11:02:14.499Z,68.79
2022-12-22T11:03:19.156Z,70.97
2022-12-22T11:04:16.373Z,67.99
2022-12-22T11:05:14.276Z,70.57
2022-12-22T11:06:14.271Z,68.99
2022-12-22T11:07:15.068Z,69.10
2022-12-22T11:08:14.283Z,70.04
2022-12-22T11:09:32.580Z,69.78
2022-12-22T11:10:16.225Z,68.90
2022-12-22T11:11:14.318Z,69.83
2022-12-22T11:12:14.219Z,69.03
2022-12-22T11:13:14.210Z,68.56
2022-12-22T11:14:14.212Z,69.04
2022-12-22T11:15:18.508Z,67.29
2022-12-22T11:16:16.243Z,70.60
2022-12-22T11:17:14.255Z,70.38
2022-12-22T11:18:15.172Z,68.35
2022-12-22T11:19:14.233Z,70.31
2022-12-22T11:20:14.163Z,69.44
2022-12-22T11:21:18.656Z,68.70
2022-12-22T11:22:18.245Z,72.05
2022-12-22T11:23:18.665Z,71.86
2022-12-22T11:24:19.014Z,71.19
2022-12-22T11:25:14.134Z,67.72
2022-12-22T11:26:14.123Z,72.15
2022-12-22T11:27:14.111Z,66.91
2022-12-22T11:28:14.100Z,69.37
2022-12-22T11:29:14.087Z,70.26
2022-12-22T11:30:15.107Z,70.49
2022-12-22T11:31:14.265Z,67.34
2022-12-22T11:32:14.073Z,71.02
2022-12-22T11:33:14.063Z,69.40
2022-12-22T11:34:20.698Z,69.89
2022-12-22T11:35:16.057Z,72.01
2022-12-22T11:36:14.041Z,70.43
2022-12-22T11:37:14.058Z,71.04
2022-12-22T11:38:14.050Z,70.72
2022-12-22T11:39:14.029Z,70.66
2022-12-22T11:40:14.040Z,69.72
2022-12-22T11:41:14.000Z,69.59
2022-12-22T11:42:14.568Z,70.81
2022-12-22T11:43:14.018Z,70.68
2022-12-22T11:44:13.982Z,69.10
2022-12-22T11:45:13.959Z,67.86
2022-12-22T11:46:14.604Z,67.47
2022-12-22T11:47:13.943Z,69.14
2022-12-22T11:48:14.958Z,68.46
2022-12-22T11:49:14.550Z,70.68
2022-12-22T11:51:01.836Z,69.26
2022-12-22T11:51:14.924Z,69.58
2022-12-22T11:52:13.909Z,69.88
2022-12-22T11:53:13.949Z,70.77
2022-12-22T11:54:13.899Z,69.07
2022-12-22T11:55:13.899Z,69.38
2022-12-22T11:56:13.899Z,70.56
2022-12-22T11:57:13.890Z,68.49
2022-12-22T11:58:13.870Z,68.86
2022-12-22T11:59:14.001Z,68.51
2022-12-22T12:00:13.932Z,68.48
2022-12-22T12:01:46.588Z,68.46
2022-12-22T12:02:14.830Z,68.49
2022-12-22T12:03:13.898Z,73.16
2022-12-22T12:04:13.875Z,67.98
2022-12-22T12:05:13.810Z,70.14
2022-12-22T12:06:13.797Z,69.30
2022-12-22T12:07:13.801Z,68.62
2022-12-22T12:08:14.893Z,68.51
2022-12-22T12:09:13.793Z,68.52
2022-12-22T12:10:13.825Z,67.80
2022-12-22T12:11:14.569Z,69.02
2022-12-22T12:12:13.760Z,67.42
2022-12-22T12:13:16.771Z,68.79
2022-12-22T12:14:15.600Z,68.60
2022-12-22T12:15:14.681Z,68.89
2022-12-22T12:16:15.662Z,66.11
2022-12-22T12:17:14.716Z,68.25
2022-12-22T12:18:14.702Z,67.41
2022-12-22T12:19:14.632Z,69.46
2022-12-22T12:20:15.613Z,70.39
2022-12-22T12:21:13.682Z,70.71
2022-12-22T12:22:13.689Z,67.02
2022-12-22T12:23:13.678Z,68.42
2022-12-22T12:24:13.662Z,70.04
2022-12-22T12:25:14.558Z,67.40
2022-12-22T12:26:13.643Z,69.71
2022-12-22T12:27:13.647Z,66.24
2022-12-22T12:28:13.639Z,68.51
2022-12-22T12:29:13.627Z,68.15
2022-12-22T12:30:37.388Z,70.37
2022-12-22T12:31:15.710Z,67.82
2022-12-22T12:32:13.622Z,66.38
2022-12-22T12:33:13.604Z,68.27
2022-12-22T12:34:13.584Z,67.80
2022-12-22T12:35:14.126Z,67.80
2022-12-22T12:36:13.579Z,68.31
2022-12-22T12:37:13.573Z,69.60
2022-12-22T12:38:39.477Z,67.59
2022-12-22T12:39:19.533Z,66.72
2022-12-22T12:40:13.549Z,65.17
2022-12-22T12:41:14.031Z,66.73
2022-12-22T12:42:15.035Z,66.63
2022-12-22T12:43:16.608Z,68.35
2022-12-22T12:44:15.047Z,68.77
2022-12-22T12:45:16.110Z,68.34
2022-12-22T12:46:14.066Z,65.82
2022-12-22T12:47:13.486Z,68.51
2022-12-22T12:48:13.471Z,67.46
2022-12-22T12:49:14.457Z,69.07
2022-12-22T12:50:13.467Z,68.17
2022-12-22T12:51:13.456Z,68.47
2022-12-22T12:52:13.442Z,67.03
2022-12-22T12:53:13.425Z,67.98
2022-12-22T12:54:13.434Z,68.24
2022-12-22T12:55:20.294Z,68.44
2022-12-22T12:56:17.123Z,69.22
2022-12-22T12:57:13.625Z,69.65
2022-12-22T12:58:13.410Z,67.29
2022-12-22T12:59:14.383Z,68.15
2022-12-22T13:00:15.035Z,69.06
2022-12-22T13:01:14.144Z,68.72
2022-12-22T13:02:14.300Z,70.04
2022-12-22T13:03:37.029Z,69.99